Time;durP1;ratioP1;P1;durP2;ratioP2;P2;SDS_P1;SDS_P2;PMS_P1;PMS_P2;Temp;Humidity;BMP_temperature;BMP_pressure;BME280_temperature;BME280_humidity;BME280_pressure;Samples;Min_cycle;Max_cycle;Signal;HPM_P1;HPM_P2
2022/12/31 00:01:21;;;;;;;3.40;2.45;;;10.00;84.70;;;;;;1905458;75;21012;-55
2022/12/31 00:03:50;;;;;;;5.33;2.37;;;10.00;84.60;;;;;;1905332;75;21003;-57
2022/12/31 00:06:28;;;;;;;4.35;2.27;;;10.00;84.30;;;;;;1905325;75;20980;-57
2022/12/31 00:08:59;;;;;;;3.67;2.33;;;10.00;84.60;;;;;;1918611;74;21128;-57
2022/12/31 00:11:30;;;;;;;6.37;2.95;;;10.00;84.30;;;;;;1924768;74;21078;-57
2022/12/31 00:13:59;;;;;;;3.42;2.60;;;10.00;84.90;;;;;;1924738;74;21003;-56
2022/12/31 00:16:31;;;;;;;3.33;2.65;;;10.00;84.40;;;;;;1924734;74;21100;-57
2022/12/31 00:19:00;;;;;;;2.75;2.22;;;10.00;84.30;;;;;;1924562;74;21112;-57
2022/12/31 00:21:31;;;;;;;4.80;2.30;;;10.00;84.40;;;;;;1924757;74;21092;-56
2022/12/31 00:24:00;;;;;;;3.30;2.37;;;10.00;84.60;;;;;;1924764;74;21080;-57
2022/12/31 00:26:31;;;;;;;5.60;2.75;;;10.00;84.50;;;;;;1924820;74;20999;-57
2022/12/31 00:29:01;;;;;;;3.83;2.40;;;10.00;84.70;;;;;;1924753;74;21081;-57
2022/12/31 00:31:32;;;;;;;3.55;2.50;;;10.00;84.90;;;;;;1924738;74;21386;-57
2022/12/31 00:34:02;;;;;;;5.33;2.90;;;10.00;84.90;;;;;;1924055;74;21092;-56
2022/12/31 00:36:34;;;;;;;4.37;2.87;;;10.00;85.20;;;;;;1924737;74;20995;-56
2022/12/31 00:39:04;;;;;;;5.20;2.62;;;10.00;85.10;;;;;;1924894;74;21007;-56
2022/12/31 00:41:33;;;;;;;3.77;2.30;;;10.00;85.10;;;;;;1924716;74;21461;-57
2022/12/31 00:44:03;;;;;;;4.20;3.02;;;9.90;85.20;;;;;;1924747;74;21023;-57
2022/12/31 00:46:32;;;;;;;5.20;2.25;;;9.90;85.30;;;;;;1924803;74;21034;-56
2022/12/31 00:49:02;;;;;;;3.75;2.40;;;9.90;85.20;;;;;;1924723;74;21039;-57
2022/12/31 00:51:31;;;;;;;4.47;2.35;;;9.90;85.40;;;;;;1924745;74;21007;-57
2022/12/31 00:54:00;;;;;;;3.92;2.50;;;9.90;85.50;;;;;;1924662;74;21014;-56
2022/12/31 00:56:31;;;;;;;3.72;2.55;;;9.90;85.40;;;;;;1924724;74;21450;-57
2022/12/31 00:59:00;;;;;;;3.12;2.55;;;9.80;85.40;;;;;;1924732;74;21080;-57
2022/12/31 01:01:32;;;;;;;6.08;2.40;;;9.80;85.50;;;;;;1924707;74;21003;-57
2022/12/31 01:04:10;;;;;;;3.55;2.33;;;9.80;85.60;;;;;;1924460;74;21015;-57
2022/12/31 01:06:39;;;;;;;5.33;3.00;;;9.80;85.40;;;;;;1924766;74;21112;-57
2022/12/31 01:09:09;;;;;;;3.25;2.20;;;9.80;85.40;;;;;;1924777;74;21169;-57
2022/12/31 01:11:38;;;;;;;4.35;2.17;;;9.80;85.50;;;;;;1924838;74;21030;-56
2022/12/31 01:14:13;;;;;;;3.52;2.30;;;9.80;85.50;;;;;;1924911;74;21081;-57
2022/12/31 01:16:49;;;;;;;3.33;2.20;;;9.90;85.50;;;;;;1924543;74;21084;-57
2022/12/31 01:19:21;;;;;;;4.92;2.75;;;9.90;85.20;;;;;;1924862;74;20987;-57
2022/12/31 01:21:50;;;;;;;3.55;2.33;;;9.90;85.20;;;;;;1924558;74;21019;-56
2022/12/31 01:24:20;;;;;;;2.60;2.00;;;10.00;85.10;;;;;;1924768;74;21098;-57
2022/12/31 01:26:50;;;;;;;5.62;2.83;;;10.00;85.20;;;;;;1924702;74;21077;-57
2022/12/31 01:29:20;;;;;;;3.00;2.33;;;10.00;85.10;;;;;;1924675;74;21108;-57
2022/12/31 01:31:49;;;;;;;2.62;2.08;;;10.00;85.10;;;;;;1924661;74;21006;-57
2022/12/31 01:34:18;;;;;;;5.55;2.17;;;10.10;84.90;;;;;;1924764;74;21101;-57
2022/12/31 01:36:47;;;;;;;5.03;1.90;;;10.10;84.70;;;;;;1924693;74;21041;-57
2022/12/31 01:39:16;;;;;;;2.83;2.10;;;10.20;84.70;;;;;;1924798;74;21065;-57
2022/12/31 01:41:47;;;;;;;3.98;2.17;;;10.20;84.70;;;;;;1924630;74;21149;-56
2022/12/31 01:44:28;;;;;;;5.17;2.98;;;10.30;84.80;;;;;;1924729;74;21044;-57
2022/12/31 01:47:02;;;;;;;3.55;1.90;;;10.30;85.00;;;;;;1924650;74;21545;-57
2022/12/31 01:49:40;;;;;;;5.47;2.70;;;10.30;84.90;;;;;;1924991;74;21011;-56
2022/12/31 01:52:15;;;;;;;5.42;2.27;;;10.40;85.00;;;;;;1924653;74;20971;-57
2022/12/31 01:54:48;;;;;;;;;;;10.40;85.10;;;;;;1926346;74;21043;-57
2022/12/31 01:57:18;;;;;;;4.55;2.10;;;10.40;85.10;;;;;;1924789;74;20169;-57
2022/12/31 01:59:47;;;;;;;2.58;2.37;;;10.40;84.90;;;;;;1924685;74;21120;-57
2022/12/31 02:02:17;;;;;;;6.17;2.20;;;10.40;84.70;;;;;;1924688;74;21030;-57
2022/12/31 02:04:47;;;;;;;4.10;3.08;;;10.50;84.80;;;;;;1924639;74;21007;-57
2022/12/31 02:07:16;;;;;;;4.37;2.30;;;10.50;84.90;;;;;;1924613;74;20979;-57
2022/12/31 02:09:45;;;;;;;5.53;2.50;;;10.50;84.70;;;;;;1915809;74;21055;-57
2022/12/31 02:12:14;;;;;;;2.80;2.08;;;10.60;84.80;;;;;;1905412;75;21036;-57
2022/12/31 02:14:46;;;;;;;3.10;1.80;;;10.60;84.80;;;;;;1905411;74;21028;-57
2022/12/31 02:17:42;;;;;;;4.03;2.22;;;10.60;84.70;;;;;;1905386;75;21004;-57
2022/12/31 02:20:18;;;;;;;4.55;2.98;;;10.60;84.60;;;;;;1905496;75;21031;-57
2022/12/31 02:23:07;;;;;;;2.72;2.05;;;10.60;84.50;;;;;;1905550;75;21591;-57
2022/12/31 02:25:42;;;;;;;2.92;2.12;;;10.60;84.70;;;;;;1905435;75;21055;-57
2022/12/31 02:28:43;;;;;;;5.78;2.20;;;10.70;84.70;;;;;;1905550;75;21034;-57
2022/12/31 02:31:24;;;;;;;4.42;2.40;;;10.70;84.80;;;;;;1905483;75;21073;-57
2022/12/31 02:33:56;;;;;;;4.40;2.60;;;10.70;84.60;;;;;;1898046;74;21051;-57
2022/12/31 02:36:27;;;;;;;5.15;2.90;;;10.70;84.70;;;;;;1905422;74;21109;-57
2022/12/31 02:38:57;;;;;;;3.40;1.65;;;10.70;84.80;;;;;;1905450;75;21077;-57
2022/12/31 02:44:25;;;;;;;4.12;2.50;;;10.70;84.20;;;;;;1905524;75;21051;-57
2022/12/31 02:46:56;;;;;;;3.83;2.27;;;10.70;84.40;;;;;;1905385;74;21092;-57
2022/12/31 02:49:28;;;;;;;4.97;1.98;;;10.80;84.60;;;;;;1905551;75;21563;-57
2022/12/31 02:52:03;;;;;;;6.60;2.65;;;10.70;84.60;;;;;;1905449;74;21559;-57
2022/12/31 02:54:54;;;;;;;4.83;2.70;;;10.70;84.80;;;;;;1904867;74;21109;-57
2022/12/31 02:57:41;;;;;;;3.67;2.17;;;10.70;84.80;;;;;;1905372;75;21020;-57
2022/12/31 03:03:02;;;;;;;5.22;2.47;;;10.80;84.80;;;;;;1905388;74;21043;-57
2022/12/31 03:05:34;;;;;;;4.25;2.30;;;10.70;84.80;;;;;;1905431;75;21003;-57
2022/12/31 03:08:03;;;;;;;3.55;2.65;;;10.80;85.00;;;;;;1905209;74;21098;-57
2022/12/31 03:10:33;;;;;;;2.40;2.12;;;10.80;85.10;;;;;;1916300;74;21082;-57
2022/12/31 03:13:02;;;;;;;2.92;2.10;;;10.70;85.00;;;;;;1924889;74;21035;-57
2022/12/31 03:15:34;;;;;;;6.97;2.72;;;10.70;85.20;;;;;;1924818;74;21022;-57
2022/12/31 03:18:14;;;;;;;3.52;2.25;;;10.70;85.20;;;;;;1924815;74;21088;-57
2022/12/31 03:23:40;;;;;;;2.92;2.45;;;10.70;85.40;;;;;;1924829;74;21120;-57
2022/12/31 03:26:11;;;;;;;6.45;3.02;;;10.70;85.50;;;;;;1924892;74;21108;-57
2022/12/31 03:28:42;;;;;;;3.85;2.30;;;10.70;85.70;;;;;;1924761;74;21007;-57
2022/12/31 03:31:11;;;;;;;4.85;2.37;;;10.70;85.80;;;;;;1924876;74;20979;-57
2022/12/31 03:33:41;;;;;;;3.50;2.45;;;10.70;85.90;;;;;;1924715;74;21007;-57
2022/12/31 03:36:13;;;;;;;3.00;2.42;;;10.70;86.10;;;;;;1924888;74;21080;-57
2022/12/31 03:38:43;;;;;;;3.87;2.33;;;10.70;86.30;;;;;;1924784;74;21096;-57
2022/12/31 03:41:12;;;;;;;4.20;2.98;;;10.80;86.40;;;;;;1924798;74;21011;-57
2022/12/31 03:43:41;;;;;;;5.92;2.85;;;10.80;86.60;;;;;;1924800;74;21129;-57
2022/12/31 03:46:10;;;;;;;4.58;3.27;;;10.80;86.70;;;;;;1924915;74;21100;-57
2022/12/31 03:48:39;;;;;;;3.92;2.47;;;10.80;86.70;;;;;;1924868;74;21092;-57
2022/12/31 03:51:08;;;;;;;5.45;2.72;;;10.80;86.70;;;;;;1924730;74;20991;-57
2022/12/31 03:53:38;;;;;;;3.92;3.12;;;10.80;86.90;;;;;;1924736;74;21090;-57
2022/12/31 03:56:07;;;;;;;3.77;3.00;;;10.80;86.90;;;;;;1924880;74;21038;-57
2022/12/31 03:58:36;;;;;;;5.65;3.20;;;10.80;87.10;;;;;;1924803;74;20982;-57
2022/12/31 04:01:05;;;;;;;5.92;2.83;;;10.80;87.10;;;;;;1924736;74;21023;-57
2022/12/31 04:03:34;;;;;;;8.00;3.02;;;10.80;87.20;;;;;;1924768;74;21085;-57
2022/12/31 04:06:04;;;;;;;6.22;3.37;;;10.80;87.40;;;;;;1924760;74;21092;-57
2022/12/31 04:08:36;;;;;;;4.62;2.62;;;10.90;87.40;;;;;;1924784;74;21030;-57
2022/12/31 04:11:05;;;;;;;4.45;3.52;;;10.80;87.50;;;;;;1914681;74;21548;-57
2022/12/31 04:13:34;;;;;;;4.95;3.40;;;10.80;87.60;;;;;;1905327;75;21028;-57
2022/12/31 04:16:04;;;;;;;7.87;3.87;;;10.90;87.70;;;;;;1905334;75;21055;-57
2022/12/31 04:18:33;;;;;;;5.55;2.50;;;10.90;87.70;;;;;;1905294;75;21008;-57
2022/12/31 04:21:03;;;;;;;4.10;3.55;;;10.90;88.00;;;;;;1905231;75;21000;-57
2022/12/31 04:23:32;;;;;;;6.35;3.92;;;10.90;88.10;;;;;;1905234;74;21089;-57
2022/12/31 04:26:02;;;;;;;6.42;2.80;;;10.90;88.00;;;;;;1905453;75;21015;-57
2022/12/31 04:28:31;;;;;;;4.35;3.40;;;10.90;87.90;;;;;;1905278;75;21152;-57
2022/12/31 04:31:00;;;;;;;6.67;3.05;;;10.90;88.10;;;;;;1905443;75;21020;-57
2022/12/31 04:33:29;;;;;;;8.00;3.12;;;10.90;88.10;;;;;;1905285;75;20987;-57
2022/12/31 04:36:03;;;;;;;7.35;3.77;;;10.80;88.10;;;;;;1905287;75;21124;-57
2022/12/31 04:38:32;;;;;;;9.78;4.92;;;10.80;88.20;;;;;;1905382;75;21007;-57
2022/12/31 04:41:17;;;;;;;11.57;3.30;;;10.80;88.30;;;;;;1905279;75;21043;-57
2022/12/31 04:43:51;;;;;;;6.37;3.55;;;10.80;88.30;;;;;;1905540;75;21106;-58
2022/12/31 04:46:23;;;;;;;10.90;4.40;;;10.80;88.70;;;;;;1905506;75;21109;-57
2022/12/31 04:48:53;;;;;;;6.85;4.33;;;10.80;89.00;;;;;;1905327;75;21007;-57
2022/12/31 04:51:23;;;;;;;9.85;3.40;;;10.80;89.70;;;;;;1905298;75;21003;-57
2022/12/31 04:53:52;;;;;;;8.03;3.80;;;10.80;88.90;;;;;;1905295;75;21075;-57
2022/12/31 04:56:21;;;;;;;5.00;3.08;;;10.80;89.40;;;;;;1905415;75;21117;-57
2022/12/31 04:58:50;;;;;;;7.25;3.85;;;10.80;89.40;;;;;;1905332;75;21001;-57
2022/12/31 05:01:20;;;;;;;12.25;5.28;;;10.80;89.80;;;;;;1905360;75;21008;-57
2022/12/31 05:03:50;;;;;;;6.72;3.20;;;10.80;89.40;;;;;;1905459;74;21007;-57
2022/12/31 05:06:23;;;;;;;5.45;3.52;;;10.80;89.70;;;;;;1905238;75;21079;-57
2022/12/31 05:08:52;;;;;;;9.03;3.15;;;10.80;89.90;;;;;;1905340;74;21011;-57
2022/12/31 05:11:21;;;;;;;4.90;3.12;;;10.80;89.60;;;;;;1905310;75;21047;-57
2022/12/31 05:13:50;;;;;;;7.75;3.70;;;10.80;89.70;;;;;;1905267;75;21551;-57
2022/12/31 05:16:19;;;;;;;7.85;3.85;;;10.90;90.00;;;;;;1905303;75;21007;-57
2022/12/31 05:18:48;;;;;;;7.37;3.72;;;10.90;90.00;;;;;;1905344;75;21107;-57
2022/12/31 05:21:20;;;;;;;4.83;3.42;;;10.90;89.90;;;;;;1905279;75;21027;-57
2022/12/31 05:23:49;;;;;;;5.42;3.40;;;10.90;90.10;;;;;;1905383;75;21085;-57
2022/12/31 05:26:18;;;;;;;10.93;4.40;;;10.90;90.30;;;;;;1905274;75;21071;-57
2022/12/31 05:28:47;;;;;;;7.80;3.80;;;10.90;90.40;;;;;;1905241;75;21055;-57
2022/12/31 05:31:16;;;;;;;5.53;4.08;;;10.90;90.40;;;;;;1905125;75;21109;-57
2022/12/31 05:33:48;;;;;;;8.60;4.00;;;10.90;90.70;;;;;;1859310;75;21078;-57
2022/12/31 05:36:17;;;;;;;6.35;3.75;;;11.00;90.60;;;;;;1867633;77;21039;-57
2022/12/31 05:38:46;;;;;;;6.25;3.37;;;11.00;90.80;;;;;;1867632;77;21023;-57
2022/12/31 05:41:16;;;;;;;6.08;4.05;;;11.00;90.70;;;;;;1867847;77;21023;-57
2022/12/31 05:43:45;;;;;;;6.92;3.62;;;11.00;90.80;;;;;;1867748;77;21039;-57
2022/12/31 05:46:15;;;;;;;7.60;3.92;;;11.00;90.70;;;;;;1867842;77;21102;-57
2022/12/31 05:48:43;;;;;;;9.90;5.03;;;11.00;91.00;;;;;;1867876;77;21066;-57
2022/12/31 05:51:12;;;;;;;8.48;4.25;;;11.00;91.00;;;;;;1867817;75;21055;-57
2022/12/31 05:53:41;;;;;;;25.70;12.95;;;11.00;91.30;;;;;;1867624;77;21027;-57
2022/12/31 05:56:11;;;;;;;10.95;5.53;;;11.00;91.20;;;;;;1867763;76;21055;-58
2022/12/31 05:58:40;;;;;;;8.03;4.37;;;11.00;91.00;;;;;;1867901;77;21051;-57
2022/12/31 06:01:09;;;;;;;9.40;5.30;;;11.00;91.20;;;;;;1867856;77;21027;-58
2022/12/31 06:03:38;;;;;;;6.85;4.20;;;11.00;91.00;;;;;;1867800;77;21089;-57
2022/12/31 06:06:07;;;;;;;6.58;4.50;;;11.00;91.10;;;;;;1867794;75;21035;-58
2022/12/31 06:08:37;;;;;;;15.75;7.08;;;11.00;91.30;;;;;;1867775;76;21027;-57
2022/12/31 06:11:06;;;;;;;16.62;6.97;;;11.00;91.30;;;;;;1867770;77;20999;-57
2022/12/31 06:13:35;;;;;;;12.78;6.75;;;11.00;91.20;;;;;;1867739;77;21094;-57
2022/12/31 06:16:08;;;;;;;8.95;5.72;;;11.00;91.40;;;;;;1867751;77;21136;-58
2022/12/31 06:18:38;;;;;;;8.63;5.73;;;11.10;91.30;;;;;;1867765;76;21078;-58
2022/12/31 06:21:07;;;;;;;9.15;6.10;;;11.00;91.20;;;;;;1867727;77;21025;-58
2022/12/31 06:23:36;;;;;;;14.43;7.22;;;11.10;91.30;;;;;;1867870;77;21139;-58
2022/12/31 06:26:06;;;;;;;12.93;7.62;;;11.10;91.20;;;;;;1867925;77;21038;-58
2022/12/31 06:28:36;;;;;;;20.48;11.03;;;11.10;91.10;;;;;;1867807;75;21031;-58
2022/12/31 06:31:08;;;;;;;17.42;12.03;;;11.10;91.30;;;;;;1867876;77;21070;-58
2022/12/31 06:33:37;;;;;;;14.35;10.38;;;11.10;91.20;;;;;;1882398;76;21079;-58
2022/12/31 06:36:08;;;;;;;16.48;10.32;;;11.10;91.10;;;;;;1900931;75;21033;-58
2022/12/31 06:38:39;;;;;;;16.67;10.23;;;11.10;91.20;;;;;;1941020;74;21076;-58
2022/12/31 06:41:10;;;;;;;14.83;10.55;;;11.10;91.30;;;;;;1941015;74;21001;-58
2022/12/31 06:43:41;;;;;;;18.48;9.38;;;11.10;91.30;;;;;;1941156;74;21006;-58
2022/12/31 06:46:12;;;;;;;20.80;11.50;;;11.10;91.40;;;;;;1941056;74;21013;-58
2022/12/31 06:48:43;;;;;;;17.85;10.35;;;11.10;91.30;;;;;;1928649;74;21083;-58
2022/12/31 06:51:14;;;;;;;18.73;10.30;;;11.10;91.40;;;;;;1928737;74;21049;-58
2022/12/31 06:53:44;;;;;;;18.40;10.53;;;11.20;91.30;;;;;;1915625;74;21112;-59
2022/12/31 06:56:23;;;;;;;18.02;10.82;;;11.20;91.30;;;;;;1915806;75;21072;-58
2022/12/31 06:58:53;;;;;;;18.87;10.98;;;11.20;91.30;;;;;;1915873;75;20986;-58
2022/12/31 07:01:50;;;;;;;21.57;11.95;;;11.20;91.40;;;;;;1915853;75;21080;-59
2022/12/31 07:04:45;;;;;;;18.87;10.82;;;11.20;91.30;;;;;;1915837;75;21022;-58
2022/12/31 07:07:33;;;;;;;16.90;10.18;;;11.20;91.40;;;;;;1915835;75;21202;-58
2022/12/31 07:10:14;;;;;;;19.20;10.53;;;11.20;91.40;;;;;;1915795;75;21034;-58
2022/12/31 07:12:57;;;;;;;18.98;10.25;;;11.10;91.30;;;;;;1871777;75;21469;-58
2022/12/31 07:15:45;;;;;;;14.75;9.53;;;11.20;91.40;;;;;;1914624;75;21049;-58
2022/12/31 07:18:25;;;;;;;15.78;10.03;;;11.10;91.30;;;;;;1915541;75;21021;-58
2022/12/31 07:20:55;;;;;;;12.73;8.53;;;11.10;91.30;;;;;;1913629;75;21085;-59
2022/12/31 07:23:24;;;;;;;17.02;9.70;;;11.20;91.30;;;;;;1915861;75;21146;-58
2022/12/31 07:26:03;;;;;;;16.42;9.48;;;11.20;91.30;;;;;;1915701;75;21147;-59
2022/12/31 07:28:35;;;;;;;17.57;9.48;;;11.20;91.40;;;;;;1914957;75;21030;-58
2022/12/31 07:31:14;;;;;;;10.35;8.08;;;11.30;91.30;;;;;;1915843;75;21089;-57
2022/12/31 07:33:51;;;;;;;19.23;11.50;;;11.40;91.00;;;;;;1903289;75;21072;-58
2022/12/31 07:36:46;;;;;;;13.70;8.93;;;11.40;91.00;;;;;;1881364;76;21046;-58
2022/12/31 07:39:18;;;;;;;12.73;9.13;;;11.50;91.00;;;;;;1881356;76;21174;-58
2022/12/31 07:41:56;;;;;;;17.73;9.53;;;11.50;91.00;;;;;;1881109;76;21123;-58
2022/12/31 07:44:46;;;;;;;14.45;7.65;;;11.60;90.90;;;;;;1881481;75;21091;-58
2022/12/31 07:47:21;;;;;;;10.88;8.25;;;11.60;90.70;;;;;;1881210;76;21049;-58
2022/12/31 07:49:51;;;;;;;14.15;9.53;;;11.70;90.50;;;;;;1881588;76;21045;-58
2022/12/31 07:52:21;;;;;;;14.93;8.55;;;11.60;90.60;;;;;;1881434;76;21083;-58
2022/12/31 07:54:51;;;;;;;16.37;8.33;;;11.60;90.50;;;;;;1881397;76;21432;-58
2022/12/31 07:57:22;;;;;;;16.42;8.95;;;11.60;90.40;;;;;;1881441;76;21025;-58
2022/12/31 08:00:13;;;;;;;17.92;9.05;;;11.60;90.40;;;;;;1881050;76;21440;-58
2022/12/31 08:03:09;;;;;;;15.32;8.75;;;11.60;90.40;;;;;;1881466;76;21023;-57
2022/12/31 08:05:44;;;;;;;12.13;8.18;;;11.60;90.40;;;;;;1881182;76;21417;-58
2022/12/31 08:08:24;;;;;;;16.60;9.13;;;11.60;90.40;;;;;;1881530;76;21506;-58
2022/12/31 08:11:02;;;;;;;14.33;9.08;;;11.60;90.30;;;;;;1881408;76;21013;-58
2022/12/31 08:13:32;;;;;;;16.73;9.53;;;11.60;90.40;;;;;;1879752;76;21550;-58
2022/12/31 08:16:02;;;;;;;19.37;9.90;;;11.60;90.40;;;;;;1881404;76;21010;-58
2022/12/31 08:18:32;;;;;;;19.07;9.00;;;11.60;90.30;;;;;;1881544;76;21029;-58
2022/12/31 08:21:21;;;;;;;19.57;9.63;;;11.60;90.40;;;;;;1881396;76;21021;-57
2022/12/31 08:24:09;;;;;;;30.97;13.32;;;11.60;90.30;;;;;;1881351;76;21013;-58
2022/12/31 08:26:56;;;;;;;29.35;13.93;;;11.60;90.40;;;;;;1880949;76;21122;-57
2022/12/31 08:29:47;;;;;;;18.87;10.10;;;11.60;90.40;;;;;;1881229;76;21068;-58
2022/12/31 08:32:28;;;;;;;22.45;10.23;;;11.60;90.30;;;;;;1881334;76;21013;-58
2022/12/31 08:35:00;;;;;;;25.10;10.88;;;11.60;90.30;;;;;;1875154;75;21138;-58
2022/12/31 08:37:40;;;;;;;26.90;12.80;;;11.60;90.30;;;;;;1880698;76;21017;-58
2022/12/31 08:40:15;;;;;;;14.90;9.53;;;11.70;90.30;;;;;;1881327;76;21018;-58
2022/12/31 08:42:53;;;;;;;18.80;8.70;;;11.70;90.30;;;;;;1881546;76;21080;-58
2022/12/31 08:45:39;;;;;;;21.48;10.85;;;11.80;90.20;;;;;;1878989;76;21479;-58
2022/12/31 08:48:26;;;;;;;18.00;9.58;;;11.80;90.20;;;;;;1881477;76;21487;-58
2022/12/31 08:50:56;;;;;;;17.15;8.95;;;11.90;90.20;;;;;;1880747;76;21087;-58
2022/12/31 08:53:25;;;;;;;18.37;9.93;;;12.00;90.20;;;;;;1881473;76;21063;-58
2022/12/31 08:55:57;;;;;;;14.30;8.80;;;12.00;90.00;;;;;;1881358;76;21029;-58
2022/12/31 08:58:40;;;;;;;11.40;8.40;;;12.10;89.20;;;;;;1881528;76;21025;-58
2022/12/31 09:01:11;;;;;;;21.50;10.00;;;12.20;89.20;;;;;;1879927;76;21037;-58
2022/12/31 09:03:45;;;;;;;17.67;9.35;;;12.20;89.10;;;;;;1881465;76;20989;-58
2022/12/31 09:06:19;;;;;;;15.83;9.98;;;12.20;88.70;;;;;;1880835;76;21471;-58
2022/12/31 09:08:55;;;;;;;24.95;11.30;;;12.30;88.70;;;;;;1881467;75;21041;-58
2022/12/31 09:14:12;;;;;;;13.83;8.60;;;12.30;88.30;;;;;;1895557;75;21067;-58
2022/12/31 09:16:43;;;;;;;17.90;8.75;;;12.30;88.10;;;;;;1909961;75;21046;-59
2022/12/31 09:19:13;;;;;;;14.87;7.97;;;12.30;88.00;;;;;;1892682;75;21046;-59
2022/12/31 09:21:45;;;;;;;14.47;8.33;;;12.30;88.10;;;;;;1898107;75;21015;-58
2022/12/31 09:24:15;;;;;;;26.07;10.15;;;12.40;88.30;;;;;;1898204;75;21047;-59
2022/12/31 09:26:56;;;;;;;22.73;9.53;;;12.40;88.20;;;;;;1897881;75;21104;-57
2022/12/31 09:29:54;;;;;;;25.15;14.20;;;12.40;88.00;;;;;;1909533;75;21054;-58
2022/12/31 09:32:49;;;;;;;20.75;11.18;;;12.40;88.80;;;;;;1910467;75;21023;-58
2022/12/31 09:35:37;;;;;;;14.50;9.20;;;12.50;88.10;;;;;;1910315;75;21080;-58
2022/12/31 09:38:41;;;;;;;15.65;10.30;;;12.50;87.60;;;;;;1910510;75;21092;-59
2022/12/31 09:41:16;;;;;;;21.12;10.15;;;12.60;87.80;;;;;;1910409;75;21124;-59
2022/12/31 09:44:03;;;;;;;19.62;9.28;;;12.70;87.90;;;;;;1907191;75;21080;-59
2022/12/31 09:46:51;;;;;;;15.98;9.83;;;12.70;87.50;;;;;;1898037;75;21102;-59
2022/12/31 09:49:52;;;;;;;22.90;11.10;;;12.70;87.40;;;;;;1910213;75;21120;-58
2022/12/31 09:52:59;;;;;;;37.33;10.65;;;12.70;87.40;;;;;;1910359;75;21019;-58
2022/12/31 09:55:37;;;;;;;15.88;8.85;;;12.70;87.10;;;;;;1910320;75;21046;-58
2022/12/31 09:58:19;;;;;;;20.95;10.35;;;12.70;87.00;;;;;;1898003;75;21123;-59
2022/12/31 10:00:54;;;;;;;13.95;9.33;;;12.60;87.00;;;;;;1897590;75;21102;-59
2022/12/31 10:03:30;;;;;;;;;;;12.60;86.90;;;;;;1913278;75;21014;-59
2022/12/31 10:06:28;;;;;;;21.97;9.10;;;12.60;86.60;;;;;;1910440;75;20142;-58
2022/12/31 10:09:04;;;;;;;20.68;11.35;;;12.60;87.20;;;;;;1881607;75;21078;-59
2022/12/31 10:11:39;;;;;;;;;;;12.60;86.80;;;;;;1900871;75;21019;-58
2022/12/31 10:14:35;;;;;;;19.45;9.25;;;12.60;86.40;;;;;;1898133;75;20135;-57
2022/12/31 10:17:07;;;;;;;16.48;9.45;;;12.50;86.70;;;;;;1910308;75;21002;-58
2022/12/31 10:19:44;;;;;;;25.02;12.37;;;12.50;86.70;;;;;;1897354;75;21019;-58
2022/12/31 10:22:42;;;;;;;21.62;12.65;;;12.50;87.10;;;;;;1897473;75;21481;-58
2022/12/31 10:25:22;;;;;;;13.38;10.03;;;12.50;87.00;;;;;;1898062;75;21027;-58
2022/12/31 10:28:09;;;;;;;17.10;10.80;;;12.50;87.40;;;;;;1893971;75;21019;-58
2022/12/31 10:30:41;;;;;;;20.40;10.82;;;12.50;86.90;;;;;;1897645;75;21051;-58
2022/12/31 10:33:36;;;;;;;18.37;9.58;;;12.60;86.90;;;;;;1897796;75;21109;-58
2022/12/31 10:36:26;;;;;;;19.12;11.35;;;12.50;87.10;;;;;;1898235;75;21046;-58
2022/12/31 10:39:29;;;;;;;14.98;8.70;;;12.50;87.00;;;;;;1897256;75;21055;-58
2022/12/31 10:42:17;;;;;;;27.52;11.43;;;12.50;87.00;;;;;;1898121;75;21179;-59
2022/12/31 10:44:59;;;;;;;18.55;9.60;;;12.50;86.80;;;;;;1898093;75;21047;-58
2022/12/31 10:47:45;;;;;;;17.40;8.93;;;12.50;87.00;;;;;;1910434;75;21123;-59
2022/12/31 10:50:33;;;;;;;22.10;15.45;;;12.50;87.00;;;;;;1896998;75;21035;-58
2022/12/31 10:53:07;;;;;;;17.62;11.33;;;12.50;86.90;;;;;;1898111;75;21047;-59
2022/12/31 10:56:02;;;;;;;22.77;10.70;;;12.50;87.10;;;;;;1898168;75;21134;-59
2022/12/31 10:58:53;;;;;;;15.98;9.98;;;12.50;86.80;;;;;;1898051;75;20999;-59
2022/12/31 11:01:34;;;;;;;19.00;9.93;;;12.50;86.90;;;;;;1898132;75;20999;-57
2022/12/31 11:04:34;;;;;;;18.20;9.48;;;12.50;87.00;;;;;;1910354;75;21042;-58
2022/12/31 11:07:18;;;;;;;18.90;9.63;;;12.40;87.00;;;;;;1910287;75;21035;-59
2022/12/31 11:10:09;;;;;;;22.77;11.35;;;12.40;87.00;;;;;;1908157;75;20991;-58
2022/12/31 11:12:56;;;;;;;17.27;10.95;;;12.40;87.30;;;;;;1910317;74;21152;-58
2022/12/31 11:15:49;;;;;;;18.12;9.93;;;12.40;87.10;;;;;;1891736;75;21038;-59
2022/12/31 11:18:39;;;;;;;17.32;9.80;;;12.40;87.30;;;;;;1909361;75;21070;-56
2022/12/31 11:21:24;;;;;;;18.70;10.65;;;12.40;87.40;;;;;;1909899;75;21098;-59
2022/12/31 11:24:07;;;;;;;19.27;10.90;;;12.40;87.50;;;;;;1908466;75;21515;-59
2022/12/31 11:26:54;;;;;;;17.48;10.93;;;12.30;87.50;;;;;;1910371;75;21100;-59
2022/12/31 11:29:38;;;;;;;16.90;11.33;;;12.40;88.10;;;;;;1909860;75;21085;-59
2022/12/31 11:32:45;;;;;;;20.48;11.43;;;12.30;87.50;;;;;;1910148;75;21046;-58
2022/12/31 11:35:23;;;;;;;18.40;10.15;;;12.30;87.50;;;;;;1909917;75;21066;-59
2022/12/31 11:37:55;;;;;;;13.25;10.00;;;12.30;87.60;;;;;;1910365;75;21156;-59
2022/12/31 11:40:32;;;;;;;25.80;11.53;;;12.30;87.60;;;;;;1908117;75;21088;-59
2022/12/31 11:43:20;;;;;;;17.82;10.60;;;12.30;87.70;;;;;;1909773;75;21034;-59
2022/12/31 11:46:12;;;;;;;21.42;11.05;;;12.30;87.70;;;;;;1910299;75;21116;-59
2022/12/31 11:49:07;;;;;;;16.75;10.65;;;12.30;87.80;;;;;;1910288;75;21097;-59
2022/12/31 11:52:04;;;;;;;17.75;10.88;;;12.30;87.80;;;;;;1910412;75;21022;-58
2022/12/31 11:54:43;;;;;;;23.50;13.43;;;12.30;87.90;;;;;;1910295;75;21043;-58
2022/12/31 11:57:24;;;;;;;22.77;14.00;;;12.30;88.00;;;;;;1910460;75;21050;-58
2022/12/31 12:00:01;;;;;;;24.43;13.43;;;12.20;88.00;;;;;;1908622;75;21050;-57
2022/12/31 12:02:37;;;;;;;20.15;11.93;;;12.20;88.10;;;;;;1906357;75;21026;-57
2022/12/31 12:05:07;;;;;;;22.90;10.87;;;12.20;88.10;;;;;;1910634;75;21010;-58
2022/12/31 12:07:36;;;;;;;17.25;10.60;;;12.30;88.10;;;;;;1910376;75;21043;-57
2022/12/31 12:10:09;;;;;;;20.25;12.05;;;12.20;88.20;;;;;;1910164;75;21124;-58
2022/12/31 12:12:42;;;;;;;19.15;11.33;;;12.20;88.20;;;;;;1906055;75;21042;-57
2022/12/31 12:15:14;;;;;;;22.17;11.90;;;12.20;88.20;;;;;;1929495;74;21051;-57
2022/12/31 12:17:43;;;;;;;17.05;10.45;;;12.20;88.10;;;;;;1932438;74;21017;-58
2022/12/31 12:20:20;;;;;;;15.43;9.88;;;12.20;88.20;;;;;;1932606;74;21535;-57
2022/12/31 12:22:51;;;;;;;18.85;11.05;;;12.20;88.00;;;;;;1854700;77;21166;-58
2022/12/31 12:25:24;;;;;;;15.80;10.60;;;12.20;88.50;;;;;;1850548;77;21070;-57
2022/12/31 12:27:53;;;;;;;21.80;11.65;;;12.30;88.00;;;;;;1907506;75;21077;-58
2022/12/31 12:30:25;;;;;;;14.55;9.50;;;12.20;88.10;;;;;;1907402;75;21080;-58
2022/12/31 12:32:56;;;;;;;20.52;10.75;;;12.20;88.20;;;;;;1907469;75;21469;-58
2022/12/31 12:35:33;;;;;;;16.12;11.10;;;12.30;88.80;;;;;;1907448;75;21096;-57
2022/12/31 12:38:06;;;;;;;24.25;12.63;;;12.30;88.20;;;;;;1907529;75;21055;-58
2022/12/31 12:40:35;;;;;;;18.42;11.20;;;12.20;88.20;;;;;;1907426;75;21046;-58
2022/12/31 12:43:05;;;;;;;18.55;11.55;;;12.20;88.30;;;;;;1907762;75;21452;-58
2022/12/31 12:45:46;;;;;;;18.75;11.43;;;12.20;88.20;;;;;;1907595;75;21031;-58
2022/12/31 12:48:18;;;;;;;20.82;11.83;;;12.20;88.30;;;;;;1907480;75;21077;-58
2022/12/31 12:50:49;;;;;;;18.73;11.08;;;12.20;88.30;;;;;;1904218;75;21550;-58
2022/12/31 12:53:44;;;;;;;17.00;10.30;;;12.20;88.30;;;;;;1907457;75;21007;-58
2022/12/31 12:56:32;;;;;;;19.27;11.08;;;12.20;88.40;;;;;;1906964;75;21026;-57
2022/12/31 12:59:07;;;;;;;20.15;11.83;;;12.20;88.60;;;;;;1907444;75;21042;-58
2022/12/31 13:01:43;;;;;;;;;;;12.10;88.50;;;;;;1910192;75;21120;-58
2022/12/31 13:04:32;;;;;;;23.30;11.30;;;12.10;88.60;;;;;;1907195;75;20111;-58
2022/12/31 13:07:24;;;;;;;20.88;11.70;;;12.10;88.60;;;;;;1907350;75;21097;-58
2022/12/31 13:10:27;;;;;;;19.60;11.85;;;12.10;88.70;;;;;;1907331;75;21136;-58
2022/12/31 13:13:28;;;;;;;16.55;11.73;;;12.10;88.70;;;;;;1906481;75;21425;-58
2022/12/31 13:16:05;;;;;;;21.75;11.53;;;12.10;88.80;;;;;;1890842;75;21095;-58
2022/12/31 13:18:58;;;;;;;16.40;11.20;;;12.10;88.90;;;;;;1890037;76;21027;-58
2022/12/31 13:21:42;;;;;;;20.65;12.58;;;12.00;88.90;;;;;;1869887;76;21035;-58
2022/12/31 13:24:31;;;;;;;17.62;12.18;;;12.00;88.90;;;;;;1889949;75;21063;-58
2022/12/31 13:27:20;;;;;;;17.75;11.38;;;12.00;88.90;;;;;;1889694;76;21148;-59
2022/12/31 13:29:50;;;;;;;19.62;12.37;;;12.00;89.00;;;;;;1889895;75;21141;-58
2022/12/31 13:32:22;;;;;;;18.62;12.53;;;12.00;89.00;;;;;;1889900;76;21140;-59
2022/12/31 13:34:54;;;;;;;19.35;12.73;;;11.90;89.20;;;;;;1889914;75;21133;-59
2022/12/31 13:37:32;;;;;;;18.60;12.03;;;11.90;89.10;;;;;;1889871;76;21021;-58